Accueil
METAR-TAF:

METAR-TAF

Aéroports :

Cherbourg, France

Aéroport de Cherbourg - Maupertus

latitude: 49-39N, longitude: 001-28W, altitude: 138 m

Observation

Le bulletin a été fait il y a 36 minutes, à 19:00 UTC
Vent 6 kt de est/nord-est
Température 15°C
Humidité 88%
Pression 1025 hPa
Visibilité 10 km ou plus
pas de nuages en-dessous de 1500 mètres et pas de cumulonimbus.

METAR: LFRC 241900Z AUTO 06006KT CAVOK 15/13 Q1025

Heure: 21:36 (19:36 UTC)

Prévision

Le bulletin a été fait il y a 5 heures et 36 minutes, à 14:00 UTC
Prévision valable du 24 à 15 UTC au 24 à 24 UTC
Vent 8 kt de nord/nord-est
Visibilité 10 km ou plus
Nuages fragmentés à une hauteur de 2500 ft

TAF: LFRC 241400Z 2415/2424 03008KT 9999 BKN025

Observations et prévisions météorologiques de plus de 4000 aéroports (messages METAR et TAF).

Les stations disponibles sont représentées par des disques jaunes et rouges sur la carte.

Passer la souris dessus pour voir le nom de la station.

Cliquer dessus pour voir les observations et prévisions météorologiques.

Pour changer de carte: cliquez sur les boutons verts avec une croix noire pour zoomer, sur le bouton vert avec un tiret pour effectuer un zoom arrière, ou sur les flèches vertes pour les cartes adjacentes.


METAR-TAF: